Time;durP1;ratioP1;P1;durP2;ratioP2;P2;SDS_P1;SDS_P2;PMS_P1;PMS_P2;Temp;Humidity;BMP_temperature;BMP_pressure;BME280_temperature;BME280_humidity;BME280_pressure;Samples;Min_cycle;Max_cycle;Signal;HPM_P1;HPM_P2
2022/12/05 00:01:22;;;;;;;15.87;11.13;;;;;;;4.55;87.17;98535.41;4966200;28;104720;-68
2022/12/05 00:03:52;;;;;;;14.47;10.30;;;;;;;4.62;87.48;98536.81;4979161;28;104181;-68
2022/12/05 00:06:22;;;;;;;14.67;9.83;;;;;;;4.50;87.30;98545.25;4956465;28;102595;-68
2022/12/05 00:08:50;;;;;;;15.23;11.03;;;;;;;4.63;86.64;98545.50;4965518;28;103693;-68
2022/12/05 00:11:20;;;;;;;17.97;10.50;;;;;;;4.73;86.64;98533.63;4960004;28;103331;-69
2022/12/05 00:13:49;;;;;;;16.17;11.00;;;;;;;4.74;85.89;98543.19;4959618;28;103296;-68
2022/12/05 00:16:20;;;;;;;15.90;10.40;;;;;;;4.68;85.75;98543.50;4934866;28;102613;-68
2022/12/05 00:18:49;;;;;;;16.00;9.93;;;;;;;4.70;85.97;98533.78;4950887;28;103382;-68
2022/12/05 00:21:18;;;;;;;18.40;11.40;;;;;;;4.68;85.15;98538.25;4967837;28;103966;-68
2022/12/05 00:23:46;;;;;;;17.97;10.90;;;;;;;4.52;86.32;98547.81;4965412;28;102619;-67
2022/12/05 00:26:15;;;;;;;15.23;10.97;;;;;;;4.66;86.66;98542.72;4978035;28;102733;-68
2022/12/05 00:28:43;;;;;;;18.90;11.43;;;;;;;4.55;86.15;98542.41;4961547;28;102646;-67
2022/12/05 00:31:13;;;;;;;17.53;11.97;;;;;;;4.50;85.91;98537.41;4976816;28;103964;-68
2022/12/05 00:33:43;;;;;;;14.50;9.53;;;;;;;4.72;86.54;98536.31;4959288;28;103302;-70
2022/12/05 00:36:13;;;;;;;15.07;10.67;;;;;;;4.71;85.26;98540.72;4974003;28;102624;-69
2022/12/05 00:38:42;;;;;;;18.50;11.53;;;;;;;4.58;86.00;98542.25;4964006;28;102611;-69
2022/12/05 00:41:11;;;;;;;16.77;11.73;;;;;;;4.59;85.36;98539.56;4965746;28;103687;-68
2022/12/05 00:43:39;;;;;;;16.67;10.60;;;;;;;4.66;85.60;98533.09;4966499;28;103244;-67
2022/12/05 00:46:09;;;;;;;15.40;10.13;;;;;;;4.65;86.16;98531.41;4961839;28;102599;-67
2022/12/05 00:48:37;;;;;;;17.97;11.90;;;;;;;4.61;85.53;98542.09;4963437;28;102778;-68
2022/12/05 00:51:11;;;;;;;18.13;11.90;;;;;;;4.68;85.58;98538.25;4959006;28;103822;-68
2022/12/05 00:53:39;;;;;;;17.03;10.40;;;;;;;4.72;85.99;98550.25;4967558;28;103274;-68
2022/12/05 00:56:11;;;;;;;17.40;11.53;;;;;;;4.54;86.15;98551.19;4976721;28;102712;-68
2022/12/05 00:58:40;;;;;;;17.93;10.70;;;;;;;4.81;86.22;98549.78;4968963;28;103583;-68
2022/12/05 01:01:10;;;;;;;16.50;9.50;;;;;;;4.84;85.98;98549.63;4965193;28;103288;-68
2022/12/05 01:03:38;;;;;;;16.20;10.20;;;;;;;4.74;85.89;98551.03;4973445;28;103520;-68
2022/12/05 01:06:08;;;;;;;18.00;11.87;;;;;;;4.82;85.99;98556.72;4961848;28;102731;-68
2022/12/05 01:08:36;;;;;;;18.03;11.23;;;;;;;4.54;86.01;98566.91;4968305;28;102664;-68
2022/12/05 01:11:06;;;;;;;15.90;9.90;;;;;;;4.85;86.02;98567.03;4968545;28;103227;-68
2022/12/05 01:13:35;;;;;;;14.60;10.07;;;;;;;4.86;85.76;98566.09;4967970;28;103316;-68
2022/12/05 01:16:03;;;;;;;17.67;10.43;;;;;;;4.90;84.98;98574.66;4986705;28;102624;-68
2022/12/05 01:18:32;;;;;;;14.60;9.53;;;;;;;5.01;85.30;98578.41;4986819;28;103089;-68
2022/12/05 01:20:59;;;;;;;19.70;11.00;;;;;;;4.95;84.87;98597.03;4964031;28;103678;-68
2022/12/05 01:23:29;;;;;;;14.93;9.60;;;;;;;4.96;85.10;98593.50;4968737;28;103266;-68
2022/12/05 01:25:56;;;;;;;20.13;11.87;;;;;;;4.93;85.07;98587.59;4962356;28;102615;-68
2022/12/05 01:28:24;;;;;;;17.27;10.43;;;;;;;4.86;85.79;98597.50;4960279;28;103209;-68
2022/12/05 01:30:52;;;;;;;18.87;10.83;;;;;;;4.84;86.06;98599.38;4969859;28;103645;-68
2022/12/05 01:33:20;;;;;;;13.33;9.17;;;;;;;4.83;85.58;98595.03;4974153;28;103242;-68
2022/12/05 01:35:48;;;;;;;16.37;10.80;;;;;;;4.91;85.43;98587.63;4962037;28;102569;-68
2022/12/05 01:38:15;;;;;;;19.47;12.37;;;;;;;4.93;84.96;98595.44;4965363;28;103647;-68
2022/12/05 01:40:45;;;;;;;16.07;10.07;;;;;;;4.95;84.54;98589.19;4964881;28;103353;-68
2022/12/05 01:43:16;;;;;;;17.87;10.70;;;;;;;5.07;84.90;98593.81;4982822;28;104523;-68
2022/12/05 01:45:46;;;;;;;13.50;9.10;;;;;;;5.10;85.12;98583.19;4976321;28;102652;-68
2022/12/05 01:48:18;;;;;;;13.50;8.67;;;;;;;5.11;84.87;98584.84;4975521;28;102823;-68
2022/12/05 01:50:47;;;;;;;17.27;11.40;;;;;;;5.09;84.62;98591.94;4967081;28;103435;-68
2022/12/05 01:53:15;;;;;;;16.70;10.40;;;;;;;5.00;83.96;98589.78;4957607;28;103737;-68
2022/12/05 01:55:46;;;;;;;15.07;9.47;;;;;;;4.85;84.96;98598.44;4951246;28;102678;-68
2022/12/05 01:58:15;;;;;;;13.47;8.93;;;;;;;4.99;85.03;98601.22;4950387;28;102696;-68
2022/12/05 02:00:44;;;;;;;13.30;8.83;;;;;;;4.96;85.03;98601.38;4966959;28;104316;-68
2022/12/05 02:03:17;;;;;;;15.87;9.10;;;;;;;4.96;84.69;98595.28;4964219;28;104360;-68
2022/12/05 02:05:48;;;;;;;16.23;10.40;;;;;;;5.02;84.49;98597.59;4969918;28;102658;-68
2022/12/05 02:08:16;;;;;;;15.57;10.10;;;;;;;4.94;84.48;98602.38;4987190;28;103645;-68
2022/12/05 02:10:48;;;;;;;14.83;9.80;;;;;;;4.85;85.30;98603.69;4962754;28;103784;-68
2022/12/05 02:13:33;;;;;;;13.73;9.80;;;;;;;4.83;85.68;98599.47;4966969;28;102832;-68
2022/12/05 02:16:05;;;;;;;16.13;10.47;;;;;;;4.93;85.29;98603.28;4971486;28;102697;-68
2022/12/05 02:18:48;;;;;;;15.60;9.77;;;;;;;4.86;85.86;98615.84;4971801;28;104104;-68
2022/12/05 02:21:44;;;;;;;14.67;9.40;;;;;;;5.01;85.13;98607.22;4962672;28;103839;-68
2022/12/05 02:24:35;;;;;;;15.20;10.03;;;;;;;5.01;84.99;98617.69;4974783;28;103180;-68
2022/12/05 02:27:24;;;;;;;14.57;9.53;;;;;;;4.85;85.71;98616.78;4985362;28;102788;-69
2022/12/05 02:30:06;;;;;;;17.63;10.37;;;;;;;4.80;85.27;98610.91;4968965;28;102984;-68
2022/12/05 02:33:01;;;;;;;11.27;8.07;;;;;;;4.79;85.09;98617.09;4959294;28;104385;-68
2022/12/05 02:35:37;;;;;;;14.27;9.63;;;;;;;4.79;84.84;98622.31;4962044;28;103176;-68
2022/12/05 02:38:17;;;;;;;12.73;8.57;;;;;;;4.61;85.33;98644.16;4983069;28;102636;-68
2022/12/05 02:40:56;;;;;;;12.87;9.23;;;;;;;4.68;85.51;98650.78;4961808;28;102656;-68
2022/12/05 02:43:32;;;;;;;12.87;8.60;;;;;;;4.71;85.93;98657.66;4958086;28;104204;-68
2022/12/05 02:46:06;;;;;;;13.43;9.03;;;;;;;4.56;85.76;98667.09;4965191;28;103204;-68
2022/12/05 02:48:37;;;;;;;13.43;8.53;;;;;;;4.49;86.57;98657.84;4967276;28;102607;-68
2022/12/05 02:51:07;;;;;;;14.40;8.90;;;;;;;4.76;85.66;98659.13;4963394;28;102718;-68
2022/12/05 02:53:37;;;;;;;15.60;8.73;;;;;;;4.54;85.94;98645.38;4967992;28;103406;-68
2022/12/05 02:56:07;;;;;;;11.23;8.13;;;;;;;4.57;86.25;98653.94;4990665;28;103595;-68
2022/12/05 02:58:41;;;;;;;11.90;7.97;;;;;;;4.55;86.20;98658.38;4961031;28;102873;-68
2022/12/05 03:01:10;;;;;;;12.30;8.50;;;;;;;4.70;86.10;98669.88;4964369;28;103632;-67
2022/12/05 03:03:38;;;;;;;13.13;9.13;;;;;;;4.57;86.43;98672.25;4980464;28;103440;-68
2022/12/05 03:06:12;;;;;;;13.53;8.90;;;;;;;4.58;86.98;98673.09;4968087;28;103331;-68
2022/12/05 03:08:48;;;;;;;12.80;8.60;;;;;;;4.58;87.06;98668.69;4980272;28;102648;-68
2022/12/05 03:11:16;;;;;;;14.87;9.67;;;;;;;4.56;87.31;98661.84;4955930;28;102970;-68
2022/12/05 03:13:49;;;;;;;14.30;9.03;;;;;;;4.74;86.78;98660.13;4964204;28;103939;-68
2022/12/05 03:16:22;;;;;;;16.53;9.77;;;;;;;4.58;87.47;98649.53;4958693;28;104327;-68
2022/12/05 03:18:55;;;;;;;13.77;8.33;;;;;;;4.78;86.58;98638.94;4958931;28;102722;-68
2022/12/05 03:21:30;;;;;;;11.53;7.67;;;;;;;4.93;86.53;98642.56;4958930;28;103611;-68
2022/12/05 03:24:02;;;;;;;12.70;7.63;;;;;;;4.94;86.05;98636.41;4973837;28;104169;-68
2022/12/05 03:26:37;;;;;;;11.83;7.33;;;;;;;4.93;85.93;98626.84;4981806;28;103226;-68
2022/12/05 03:29:21;;;;;;;13.00;8.23;;;;;;;4.99;85.69;98637.88;4972408;28;102648;-68
2022/12/05 03:32:03;;;;;;;11.10;7.70;;;;;;;5.05;85.54;98639.31;4958458;28;103882;-68
2022/12/05 03:34:42;;;;;;;15.63;8.60;;;;;;;5.01;85.66;98637.78;4964940;28;103262;-68
2022/12/05 03:37:15;;;;;;;13.20;8.70;;;;;;;5.03;85.36;98644.63;4959840;28;103335;-68
2022/12/05 03:39:48;;;;;;;12.63;7.90;;;;;;;5.11;85.46;98642.47;4959875;28;102692;-68
2022/12/05 03:42:20;;;;;;;13.47;8.70;;;;;;;4.98;85.81;98649.25;4973665;28;102843;-68
2022/12/05 03:44:54;;;;;;;11.63;7.33;;;;;;;5.03;85.80;98639.38;4970275;28;103199;-68
2022/12/05 03:47:29;;;;;;;14.20;8.80;;;;;;;5.08;85.28;98647.03;4983553;28;104377;-68
2022/12/05 03:50:01;;;;;;;11.80;7.50;;;;;;;5.14;85.87;98642.31;4960507;28;102816;-68
2022/12/05 03:52:34;;;;;;;15.23;9.70;;;;;;;5.05;86.08;98636.72;4962999;28;103900;-68
2022/12/05 03:55:25;;;;;;;13.07;8.40;;;;;;;5.13;85.96;98645.88;4959352;28;103231;-68
2022/12/05 03:57:58;;;;;;;12.93;8.20;;;;;;;5.15;85.80;98654.50;4956591;28;103211;-68
2022/12/05 04:00:30;;;;;;;12.47;8.37;;;;;;;5.19;86.30;98649.94;4949263;28;105234;-68
2022/12/05 04:03:06;;;;;;;13.83;9.40;;;;;;;5.13;86.04;98656.34;4956314;28;103347;-68
2022/12/05 04:05:42;;;;;;;14.33;8.90;;;;;;;5.14;86.36;98644.94;4963322;28;104194;-69
2022/12/05 04:08:14;;;;;;;14.67;9.53;;;;;;;5.11;86.36;98637.22;4965710;28;102670;-68
2022/12/05 04:10:49;;;;;;;16.93;10.00;;;;;;;5.15;86.26;98641.41;4960841;28;103129;-68
2022/12/05 04:13:20;;;;;;;13.30;8.67;;;;;;;5.23;86.10;98636.59;4956986;28;102812;-69
2022/12/05 04:18:50;;;;;;;13.07;7.97;;;;;;;5.36;86.01;98641.22;4974332;28;104286;-68
2022/12/05 04:21:39;;;;;;;13.23;8.67;;;;;;;5.26;85.98;98649.53;4961578;28;102704;-68
2022/12/05 04:27:09;;;;;;;12.43;8.00;;;;;;;5.14;86.86;98647.53;4960231;28;103780;-68
2022/12/05 04:29:48;;;;;;;15.97;9.60;;;;;;;5.17;86.10;98657.00;4964406;28;102522;-68
2022/12/05 04:32:19;;;;;;;16.50;10.70;;;;;;;4.91;86.47;98663.56;4955304;28;102764;-69
2022/12/05 04:34:57;;;;;;;13.90;8.93;;;;;;;5.14;86.85;98670.25;4949968;28;102777;-69
2022/12/05 04:37:29;;;;;;;15.87;10.33;;;;;;;4.85;87.42;98655.19;4951368;28;104132;-69
2022/12/05 04:40:01;;;;;;;14.57;8.67;;;;;;;5.13;88.08;98669.44;4959985;28;103942;-70
2022/12/05 04:42:32;;;;;;;12.30;7.60;;;;;;;5.23;87.50;98670.66;4955939;28;102614;-70
2022/12/05 04:45:05;;;;;;;11.43;7.57;;;;;;;5.32;87.17;98676.34;4945715;28;104264;-70
2022/12/05 04:47:39;;;;;;;11.20;7.23;;;;;;;5.07;87.50;98674.13;4963496;28;104676;-70
2022/12/05 04:50:12;;;;;;;14.57;9.07;;;;;;;4.99;88.06;98674.53;4956219;28;103280;-70
2022/12/05 04:52:41;;;;;;;16.03;10.30;;;;;;;4.72;88.74;98675.03;4969838;28;102686;-70
2022/12/05 04:55:13;;;;;;;12.73;7.50;;;;;;;4.89;90.21;98680.28;4973100;28;104287;-71
2022/12/05 04:57:50;;;;;;;11.30;7.23;;;;;;;5.11;89.30;98684.38;4975459;28;104463;-70
2022/12/05 05:00:18;;;;;;;10.57;7.20;;;;;;;5.19;88.18;98678.75;4963136;28;103181;-71
2022/12/05 05:02:50;;;;;;;15.57;10.27;;;;;;;4.88;87.88;98682.06;4957042;28;102722;-71
2022/12/05 05:05:23;;;;;;;13.73;8.60;;;;;;;4.95;89.18;98672.97;4948812;28;104330;-72
2022/12/05 05:07:53;;;;;;;11.83;7.03;;;;;;;5.12;88.67;98675.59;4975743;28;104370;-71
2022/12/05 05:10:27;;;;;;;13.00;8.10;;;;;;;5.24;88.26;98680.22;4936818;28;103429;-72
2022/12/05 05:12:55;;;;;;;12.93;8.30;;;;;;;5.31;87.94;98685.13;4950877;28;102857;-71
2022/12/05 05:15:23;;;;;;;13.40;9.17;;;;;;;5.13;87.63;98682.53;4966019;28;103860;-71
2022/12/05 05:17:50;;;;;;;13.33;9.57;;;;;;;4.94;88.65;98692.22;4948238;28;103279;-71
2022/12/05 05:20:25;;;;;;;15.80;9.97;;;;;;;4.95;89.64;98688.69;4962605;28;103301;-72
2022/12/05 05:22:57;;;;;;;14.83;7.70;;;;;;;5.20;89.03;98694.38;4968840;28;102854;-72
2022/12/05 05:25:26;;;;;;;12.57;7.57;;;;;;;5.29;88.31;98682.59;4969341;28;104522;-73
2022/12/05 05:27:56;;;;;;;11.43;7.10;;;;;;;5.41;88.15;98681.13;4987831;28;104412;-73
2022/12/05 05:30:24;;;;;;;12.43;7.93;;;;;;;5.35;87.56;98684.03;4976397;28;103197;-73
2022/12/05 05:32:53;;;;;;;14.37;9.70;;;;;;;5.36;88.16;98696.22;4964741;28;102631;-72
2022/12/05 05:35:21;;;;;;;15.13;9.73;;;;;;;5.25;88.28;98710.72;4959015;28;104112;-73
2022/12/05 05:37:51;;;;;;;20.60;10.93;;;;;;;5.25;87.63;98721.19;4962067;28;103698;-72
2022/12/05 05:40:21;;;;;;;13.67;8.07;;;;;;;5.30;87.83;98725.34;4960408;28;103206;-73
2022/12/05 05:42:50;;;;;;;12.63;8.20;;;;;;;5.36;87.95;98725.06;4963671;28;102858;-73
2022/12/05 05:45:18;;;;;;;12.00;7.27;;;;;;;5.42;87.56;98714.25;4979061;28;102768;-73
2022/12/05 05:47:49;;;;;;;14.17;8.83;;;;;;;5.54;87.40;98724.09;4982065;28;104029;-73
2022/12/05 05:50:17;;;;;;;14.90;8.53;;;;;;;5.36;87.77;98730.28;4953980;28;103229;-73
2022/12/05 05:52:48;;;;;;;14.73;8.70;;;;;;;5.40;87.41;98742.28;4978839;28;102668;-73
2022/12/05 05:55:21;;;;;;;15.80;9.53;;;;;;;5.36;87.44;98733.72;4962792;28;103708;-73
2022/12/05 05:57:50;;;;;;;17.40;10.40;;;;;;;5.13;88.31;98741.91;4962446;28;103860;-72
2022/12/05 06:00:18;;;;;;;16.10;9.83;;;;;;;5.21;88.02;98738.00;4959209;28;103354;-73
2022/12/05 06:02:48;;;;;;;12.37;8.23;;;;;;;5.40;87.78;98731.81;4949260;28;102886;-73
2022/12/05 06:05:17;;;;;;;13.93;9.23;;;;;;;5.44;87.19;98728.13;4962491;28;103809;-72
2022/12/05 06:07:44;;;;;;;14.10;8.43;;;;;;;5.48;87.04;98729.66;4965771;28;104222;-73
2022/12/05 06:10:15;;;;;;;13.80;9.27;;;;;;;5.48;86.56;98713.91;4957848;28;103391;-73
2022/12/05 06:12:45;;;;;;;15.57;10.30;;;;;;;5.28;87.39;98713.19;4960501;28;102690;-74
2022/12/05 06:15:14;;;;;;;13.10;8.73;;;;;;;5.18;87.76;98717.19;4979389;28;103439;-71
2022/12/05 06:17:44;;;;;;;15.93;9.43;;;;;;;5.37;87.47;98726.72;4956254;28;103254;-72
2022/12/05 06:20:12;;;;;;;15.90;9.13;;;;;;;5.49;87.46;98731.34;4963270;28;103178;-70
2022/12/05 06:22:42;;;;;;;13.90;8.87;;;;;;;5.53;86.93;98725.03;4977015;28;102752;-73
2022/12/05 06:25:10;;;;;;;15.67;10.73;;;;;;;5.41;86.72;98728.28;4955315;28;104363;-73
2022/12/05 06:27:38;;;;;;;13.57;9.33;;;;;;;5.51;86.84;98725.09;4959783;28;103306;-74
2022/12/05 06:30:07;;;;;;;14.13;8.90;;;;;;;5.56;86.41;98727.47;4962272;28;104586;-73
2022/12/05 06:32:36;;;;;;;17.37;11.20;;;;;;;5.38;86.04;98720.56;4965144;28;102739;-73
2022/12/05 06:35:13;;;;;;;12.93;8.63;;;;;;;5.22;88.01;98729.19;4981724;28;102602;-72
2022/12/05 06:37:42;;;;;;;12.60;8.40;;;;;;;5.43;87.71;98742.13;4964702;28;104061;-72
2022/12/05 06:40:11;;;;;;;13.87;9.77;;;;;;;5.36;87.66;98753.88;4980223;28;103947;-72
2022/12/05 06:42:39;;;;;;;17.97;10.73;;;;;;;5.31;87.91;98769.81;4969247;28;102613;-71
2022/12/05 06:45:07;;;;;;;17.30;10.03;;;;;;;5.18;88.27;98772.19;4981085;28;102894;-71
2022/12/05 06:47:36;;;;;;;15.03;9.60;;;;;;;5.25;88.84;98765.72;4984714;28;104069;-71
2022/12/05 06:50:06;;;;;;;18.13;10.87;;;;;;;5.34;87.65;98776.66;4952592;28;103223;-72
2022/12/05 06:52:33;;;;;;;19.33;11.67;;;;;;;5.21;88.54;98772.06;4972066;28;102643;-71
2022/12/05 06:55:01;;;;;;;16.63;10.77;;;;;;;5.14;88.96;98777.63;4958455;28;104870;-72
2022/12/05 06:57:32;;;;;;;18.00;10.67;;;;;;;5.20;88.46;98778.19;4956308;28;104643;-72
2022/12/05 07:02:43;;;;;;;17.43;9.90;;;;;;;5.38;87.30;98780.84;4962952;28;102641;-72
2022/12/05 07:05:11;;;;;;;17.43;10.10;;;;;;;5.43;87.09;98786.69;4969992;28;102845;-71
2022/12/05 07:07:39;;;;;;;15.37;10.30;;;;;;;5.40;86.91;98784.22;4952930;28;103448;-72
2022/12/05 07:10:08;;;;;;;15.60;9.20;;;;;;;5.60;86.65;98778.81;4967123;28;103955;-71
2022/12/05 07:12:35;;;;;;;11.93;8.40;;;;;;;5.67;86.00;98788.09;4963616;28;102976;-71
2022/12/05 07:15:04;;;;;;;10.87;7.37;;;;;;;5.76;86.04;98782.34;4980095;28;102732;-71
2022/12/05 07:17:36;;;;;;;10.47;7.60;;;;;;;5.82;85.78;98788.13;4966032;28;103527;-72
2022/12/05 07:20:06;;;;;;;11.80;7.90;;;;;;;5.84;85.32;98777.56;4968888;28;103249;-71
2022/12/05 07:22:36;;;;;;;13.60;8.00;;;;;;;5.78;84.55;98768.22;4960498;28;102805;-71
2022/12/05 07:25:04;;;;;;;12.13;8.10;;;;;;;5.88;84.99;98773.88;4969935;28;102719;-72
2022/12/05 07:27:33;;;;;;;14.57;9.70;;;;;;;5.75;85.33;98791.97;4951523;28;103824;-71
2022/12/05 07:30:01;;;;;;;14.00;9.63;;;;;;;5.70;85.67;98795.75;4983116;28;105149;-71
2022/12/05 07:32:32;;;;;;;15.90;9.47;;;;;;;5.67;86.31;98801.19;4969606;28;102662;-71
2022/12/05 07:35:03;;;;;;;17.77;9.70;;;;;;;5.66;86.45;98802.09;4963284;28;104546;-71
2022/12/05 07:37:32;;;;;;;11.80;7.57;;;;;;;5.83;86.48;98802.09;4977036;28;102613;-71
2022/12/05 07:40:00;;;;;;;15.07;10.17;;;;;;;5.71;85.77;98806.19;4959529;28;103332;-71
2022/12/05 07:42:28;;;;;;;15.47;9.30;;;;;;;5.78;86.37;98809.34;4961271;28;102637;-71
2022/12/05 07:44:58;;;;;;;14.73;8.97;;;;;;;5.89;86.26;98809.69;4951588;28;102686;-71
2022/12/05 07:47:25;;;;;;;10.47;7.80;;;;;;;6.01;85.71;98808.16;4981244;28;104104;-71
2022/12/05 07:49:53;;;;;;;15.30;10.03;;;;;;;6.01;85.62;98810.78;4972247;28;104124;-71
2022/12/05 07:52:21;;;;;;;12.90;8.80;;;;;;;6.12;85.71;98801.44;4963375;28;103476;-71
2022/12/05 07:54:51;;;;;;;14.40;8.40;;;;;;;6.07;85.92;98810.47;4977181;28;102719;-72
2022/12/05 07:57:18;;;;;;;14.53;9.83;;;;;;;6.14;85.80;98810.09;4954702;28;103248;-71
2022/12/05 07:59:46;;;;;;;16.07;9.73;;;;;;;5.80;86.23;98803.09;4962336;28;103307;-71
2022/12/05 08:02:14;;;;;;;13.87;9.63;;;;;;;5.89;86.82;98808.81;4945917;28;102637;-71
2022/12/05 08:04:42;;;;;;;11.90;8.07;;;;;;;5.85;86.95;98810.75;4952239;28;103854;-71
2022/12/05 08:07:10;;;;;;;13.50;8.93;;;;;;;5.98;86.82;98810.97;4976596;28;104239;-71
2022/12/05 08:09:39;;;;;;;14.80;10.07;;;;;;;6.01;87.05;98810.78;4965758;28;103307;-71
2022/12/05 08:12:08;;;;;;;12.47;7.97;;;;;;;6.10;87.09;98813.78;4971281;28;102572;-72
2022/12/05 08:14:36;;;;;;;14.00;8.43;;;;;;;6.13;86.91;98818.88;4975305;28;103897;-72
2022/12/05 08:17:04;;;;;;;15.67;9.33;;;;;;;6.08;86.30;98810.41;4974196;28;103298;-71
2022/12/05 08:19:32;;;;;;;14.37;9.40;;;;;;;6.01;86.62;98823.91;4978856;28;102596;-71
2022/12/05 08:22:00;;;;;;;12.60;8.13;;;;;;;6.15;86.86;98822.25;4953963;28;102630;-71
2022/12/05 08:24:28;;;;;;;13.57;9.13;;;;;;;6.11;86.98;98820.75;4957373;28;102721;-71
2022/12/05 08:26:56;;;;;;;15.50;10.60;;;;;;;6.14;87.05;98831.09;4938486;28;104438;-71
2022/12/05 08:29:25;;;;;;;19.53;11.00;;;;;;;6.16;86.90;98831.00;4960889;28;103365;-71
2022/12/05 08:31:53;;;;;;;15.53;9.07;;;;;;;6.12;87.36;98837.34;4961781;28;102669;-71
2022/12/05 08:34:21;;;;;;;14.27;8.63;;;;;;;6.26;86.87;98840.91;4966365;28;102820;-72
2022/12/05 08:36:49;;;;;;;12.23;8.50;;;;;;;6.30;87.04;98831.97;4957185;28;103266;-71
2022/12/05 08:39:19;;;;;;;19.17;11.03;;;;;;;6.12;87.52;98848.66;4980392;28;103223;-71
2022/12/05 08:41:48;;;;;;;17.27;10.83;;;;;;;6.17;87.21;98849.28;4965344;28;102753;-71
2022/12/05 08:44:17;;;;;;;18.23;10.20;;;;;;;6.21;86.91;98852.56;4973200;28;102652;-71
2022/12/05 08:46:48;;;;;;;18.70;10.70;;;;;;;6.27;87.05;98860.13;4982519;28;104234;-71
2022/12/05 08:49:16;;;;;;;13.17;9.57;;;;;;;6.27;86.95;98858.38;4962372;28;103188;-71
2022/12/05 08:51:45;;;;;;;14.93;10.63;;;;;;;6.27;87.01;98858.38;4966798;28;102640;-71
2022/12/05 08:54:13;;;;;;;17.77;9.97;;;;;;;6.31;87.05;98856.44;4970236;28;102644;-71
2022/12/05 08:56:40;;;;;;;13.23;9.50;;;;;;;6.43;86.24;98857.56;4973301;28;104154;-71
2022/12/05 08:59:11;;;;;;;13.33;9.17;;;;;;;6.47;86.18;98864.34;4964217;28;104098;-71
2022/12/05 09:01:40;;;;;;;13.80;8.30;;;;;;;6.49;85.72;98857.22;4965152;28;102675;-71
2022/12/05 09:04:11;;;;;;;13.00;9.87;;;;;;;6.54;84.89;98849.97;4959210;28;104360;-71
2022/12/05 09:06:40;;;;;;;17.50;9.13;;;;;;;6.54;85.07;98863.09;4973782;28;104216;-71
2022/12/05 09:09:10;;;;;;;13.07;9.10;;;;;;;6.54;85.53;98857.84;4963515;28;102613;-71
2022/12/05 09:11:45;;;;;;;12.00;9.00;;;;;;;6.61;86.38;98856.56;4981029;28;102945;-71
2022/12/05 09:14:13;;;;;;;10.67;7.80;;;;;;;6.78;86.08;98856.50;4960479;28;104261;-71
2022/12/05 09:16:44;;;;;;;10.53;8.20;;;;;;;6.73;85.77;98866.41;4970802;28;104105;-72
2022/12/05 09:19:16;;;;;;;14.37;9.53;;;;;;;6.83;85.73;98871.09;4952900;28;102811;-70
2022/12/05 09:21:44;;;;;;;10.10;7.27;;;;;;;6.89;85.86;98883.03;4981191;28;102780;-71
2022/12/05 09:24:13;;;;;;;13.27;9.77;;;;;;;6.78;85.37;98877.53;4966902;28;103775;-71
2022/12/05 09:26:41;;;;;;;15.83;10.00;;;;;;;6.77;85.51;98883.69;4960761;28;104253;-72
2022/12/05 09:29:09;;;;;;;17.53;10.60;;;;;;;6.69;85.73;98880.63;4970233;28;103269;-71
2022/12/05 09:31:50;;;;;;;11.83;8.53;;;;;;;6.75;85.35;98893.44;4964105;28;102933;-70
2022/12/05 09:34:19;;;;;;;16.77;10.40;;;;;;;6.79;84.39;98892.34;4956198;28;102773;-69
2022/12/05 09:36:50;;;;;;;13.40;8.77;;;;;;;6.96;84.69;98890.47;4959772;28;103449;-71
2022/12/05 09:39:25;;;;;;;11.67;8.93;;;;;;;6.80;83.90;98891.41;4966798;28;103274;-71
2022/12/05 09:42:19;;;;;;;12.13;7.70;;;;;;;6.92;84.67;98898.63;4978667;28;102826;-72
2022/12/05 09:45:02;;;;;;;9.00;7.30;;;;;;;7.02;84.99;98899.81;4961833;28;105279;-70
2022/12/05 09:47:39;;;;;;;9.37;6.97;;;;;;;6.97;83.79;98900.06;4974949;28;103419;-71
2022/12/05 09:50:17;;;;;;;10.20;7.60;;;;;;;7.12;83.72;98901.03;4965102;28;103956;-70
2022/12/05 09:53:02;;;;;;;10.87;7.90;;;;;;;7.20;83.76;98898.81;4959814;28;103018;-70
2022/12/05 09:55:45;;;;;;;12.63;8.17;;;;;;;7.30;83.28;98907.00;4978639;28;104153;-70
2022/12/05 09:58:30;;;;;;;11.40;7.80;;;;;;;7.08;82.48;98896.84;4966494;28;103674;-70
2022/12/05 10:01:03;;;;;;;11.43;8.17;;;;;;;7.08;82.42;98904.72;4974104;28;104332;-71
2022/12/05 10:03:42;;;;;;;13.77;9.43;;;;;;;7.21;82.79;98897.88;4961230;28;102762;-71
2022/12/05 10:06:22;;;;;;;11.27;8.20;;;;;;;7.14;83.18;98898.28;4960417;28;102664;-71
2022/12/05 10:09:04;;;;;;;13.70;10.00;;;;;;;7.05;83.36;98904.91;4963330;28;104457;-70
2022/12/05 10:11:39;;;;;;;10.53;7.60;;;;;;;7.14;84.59;98907.03;4963412;28;103268;-71
2022/12/05 10:14:16;;;;;;;12.23;8.80;;;;;;;7.22;84.27;98911.84;4966105;28;102780;-70
2022/12/05 10:16:49;;;;;;;12.50;9.00;;;;;;;6.83;84.54;98905.22;4958795;28;104372;-71
2022/12/05 10:19:24;;;;;;;11.17;8.23;;;;;;;6.67;86.49;98908.75;4968179;28;104062;-70
2022/12/05 10:21:57;;;;;;;12.77;8.97;;;;;;;6.59;87.33;98910.94;4954055;28;103395;-71
2022/12/05 10:24:31;;;;;;;16.23;10.60;;;;;;;6.43;88.13;98910.06;4977306;28;102700;-71
2022/12/05 10:27:02;;;;;;;15.53;9.87;;;;;;;6.20;88.60;98912.06;4959876;28;102859;-71
2022/12/05 10:29:35;;;;;;;13.70;9.50;;;;;;;6.07;90.01;98908.38;4954255;28;104174;-71
2022/12/05 10:32:07;;;;;;;13.60;10.13;;;;;;;6.28;88.89;98906.44;4960077;28;103274;-71
2022/12/05 10:34:39;;;;;;;12.03;8.73;;;;;;;6.56;88.43;98897.97;4961295;28;102784;-71
2022/12/05 10:37:15;;;;;;;13.00;9.97;;;;;;;6.55;87.47;98891.03;4962406;28;103845;-70
2022/12/05 10:39:47;;;;;;;12.80;9.03;;;;;;;6.43;87.19;98890.75;4956502;28;103854;-70
2022/12/05 10:42:17;;;;;;;11.37;8.53;;;;;;;6.47;88.84;98885.34;4962050;28;103383;-70
2022/12/05 10:44:45;;;;;;;13.80;10.00;;;;;;;6.60;88.78;98886.38;4956106;28;102802;-70
2022/12/05 10:47:13;;;;;;;12.07;8.20;;;;;;;6.97;88.72;98886.09;4979681;28;103798;-70
2022/12/05 10:49:42;;;;;;;12.67;7.80;;;;;;;6.99;88.04;98879.81;4978534;28;103352;-70
2022/12/05 10:52:14;;;;;;;15.70;10.63;;;;;;;7.22;86.47;98881.16;4955695;28;103333;-70
2022/12/05 10:54:46;;;;;;;10.47;7.97;;;;;;;7.18;85.71;98890.16;4959309;28;102629;-70
2022/12/05 10:57:23;;;;;;;11.57;8.70;;;;;;;7.39;84.34;98888.09;4967284;28;104008;-70
2022/12/05 10:59:51;;;;;;;13.73;10.47;;;;;;;7.42;85.63;98891.41;4951187;28;103792;-70
2022/12/05 11:02:24;;;;;;;12.57;8.53;;;;;;;7.16;84.94;98891.19;4965021;28;103411;-70
2022/12/05 11:04:53;;;;;;;12.17;9.17;;;;;;;7.52;85.04;98889.94;4961547;28;102592;-69
2022/12/05 11:07:30;;;;;;;13.53;9.30;;;;;;;7.39;83.35;98882.84;4970214;28;102706;-70
2022/12/05 11:10:00;;;;;;;10.70;8.50;;;;;;;7.56;83.57;98883.59;4960052;28;103976;-69
2022/12/05 11:12:29;;;;;;;13.27;9.23;;;;;;;7.47;84.64;98876.22;4972687;28;104226;-70
2022/12/05 11:15:01;;;;;;;12.60;9.17;;;;;;;7.24;83.93;98876.66;4967470;28;102577;-70
2022/12/05 11:17:33;;;;;;;10.67;8.00;;;;;;;7.27;85.96;98879.13;4984177;28;103135;-70
2022/12/05 11:20:01;;;;;;;8.80;6.90;;;;;;;7.89;84.81;98882.56;4968771;28;103438;-69
2022/12/05 11:22:33;;;;;;;11.03;7.93;;;;;;;8.12;84.38;98880.28;4967329;28;103535;-70
2022/12/05 11:25:01;;;;;;;11.23;8.37;;;;;;;7.63;82.75;98880.63;4961205;28;102875;-70
2022/12/05 11:27:31;;;;;;;12.40;9.23;;;;;;;7.40;83.12;98882.78;4977513;28;102986;-70
2022/12/05 11:30:02;;;;;;;12.23;9.20;;;;;;;7.37;83.66;98880.31;4964711;28;103087;-70
2022/12/05 11:32:32;;;;;;;14.30;9.20;;;;;;;7.16;84.84;98871.00;4976715;28;103387;-70
2022/12/05 11:35:17;;;;;;;12.23;8.73;;;;;;;6.97;85.40;98870.31;4960838;28;102658;-70
2022/12/05 11:37:52;;;;;;;11.43;9.17;;;;;;;7.20;85.79;98861.16;4964242;28;102664;-70
2022/12/05 11:40:28;;;;;;;12.73;8.67;;;;;;;7.91;83.73;98864.94;4963921;28;105392;-70
2022/12/05 11:43:21;;;;;;;12.40;8.77;;;;;;;8.05;81.59;98870.22;4976095;28;104443;-69
2022/12/05 11:45:59;;;;;;;12.33;8.97;;;;;;;7.69;81.36;98867.13;4955450;28;102781;-69
2022/12/05 11:48:55;;;;;;;12.10;8.67;;;;;;;7.40;82.24;98868.78;4967749;28;102618;-70
2022/12/05 11:51:37;;;;;;;12.63;8.57;;;;;;;7.65;82.57;98863.81;4966269;28;103379;-70
2022/12/05 11:54:36;;;;;;;11.90;7.83;;;;;;;7.90;82.24;98863.22;4978244;28;103182;-70